Time;durP1;ratioP1;P1;durP2;ratioP2;P2;SDS_P1;SDS_P2;PMS_P1;PMS_P2;Temp;Humidity;BMP_temperature;BMP_pressure;BME280_temperature;BME280_humidity;BME280_pressure;Samples;Min_cycle;Max_cycle;Signal;HPM_P1;HPM_P2
2023/08/25 00:01:11;;;;;;;27.08;16.55;;;;;;;23.74;62.18;95267.03;5041439;28;20128;-82
2023/08/25 00:03:37;;;;;;;25.63;17.10;;;;;;;23.80;62.46;95279.16;5040614;28;20051;-80
2023/08/25 00:06:02;;;;;;;22.83;16.55;;;;;;;23.93;62.58;95294.13;5033272;28;20063;-80
2023/08/25 00:08:28;;;;;;;22.85;16.02;;;;;;;23.90;62.45;95299.47;5030744;28;20441;-80
2023/08/25 00:10:53;;;;;;;24.77;16.60;;;;;;;23.72;62.16;95294.47;5032909;28;20515;-80
2023/08/25 00:13:20;;;;;;;25.38;16.30;;;;;;;23.87;62.28;95309.09;5031525;28;20504;-80
2023/08/25 00:15:45;;;;;;;20.08;16.52;;;;;;;23.68;62.59;95271.16;5032080;28;20025;-80
2023/08/25 00:18:11;;;;;;;24.30;16.98;;;;;;;23.94;62.24;95297.63;5032933;28;20040;-80
2023/08/25 00:20:37;;;;;;;21.58;16.17;;;;;;;23.75;62.28;95271.31;5032576;28;20063;-80
2023/08/25 00:23:03;;;;;;;22.67;17.13;;;;;;;23.39;62.88;95250.78;5031682;28;20119;-80
2023/08/25 00:25:30;;;;;;;22.45;17.08;;;;;;;23.77;62.70;95285.28;5031765;28;20044;-80
2023/08/25 00:27:55;;;;;;;23.63;15.52;;;;;;;23.54;62.88;95254.59;5031181;28;20033;-80
2023/08/25 00:30:21;;;;;;;23.60;17.08;;;;;;;23.82;62.67;95306.66;5032589;28;20044;-80
2023/08/25 00:32:46;;;;;;;29.25;17.23;;;;;;;23.23;62.52;95207.53;5033037;28;20730;-80
2023/08/25 00:35:12;;;;;;;20.23;17.35;;;;;;;23.96;62.47;95315.09;5031245;28;20045;-80
2023/08/25 00:37:37;;;;;;;22.98;16.33;;;;;;;23.77;62.22;95286.06;5031088;28;20056;-80
2023/08/25 00:40:03;;;;;;;26.98;16.75;;;;;;;23.81;62.42;95292.34;5032797;28;20095;-80
2023/08/25 00:42:28;;;;;;;26.20;17.50;;;;;;;23.92;62.17;95311.53;5031726;28;20033;-80
2023/08/25 00:44:54;;;;;;;21.38;16.63;;;;;;;23.67;62.59;95291.25;5064219;28;20026;-80
2023/08/25 00:47:20;;;;;;;21.05;16.85;;;;;;;23.77;62.63;95313.16;5031747;28;20032;-80
2023/08/25 00:49:48;;;;;;;24.10;16.45;;;;;;;23.84;62.52;95313.31;5031431;28;20080;-80
2023/08/25 00:52:16;;;;;;;21.88;17.20;;;;;;;23.86;62.67;95321.06;5030994;28;20530;-80
2023/08/25 00:54:43;;;;;;;19.27;15.65;;;;;;;23.51;62.76;95277.75;5031818;28;20033;-80
2023/08/25 00:57:08;;;;;;;23.77;16.48;;;;;;;23.33;62.89;95255.69;5033164;28;20037;-80
2023/08/25 00:59:35;;;;;;;19.90;16.48;;;;;;;23.70;63.35;95320.34;5031833;28;20401;-80
2023/08/25 01:02:01;;;;;;;27.50;17.30;;;;;;;23.31;63.24;95259.88;5032561;28;20021;-80
2023/08/25 01:04:27;;;;;;;21.50;16.88;;;;;;;23.47;63.06;95285.78;5032987;28;20151;-80
2023/08/25 01:06:54;;;;;;;19.25;16.05;;;;;;;23.27;63.52;95267.09;5033110;28;20095;-80
2023/08/25 01:09:20;;;;;;;21.30;16.85;;;;;;;23.70;63.57;95323.03;5032877;28;20090;-80
2023/08/25 01:11:59;;;;;;;21.10;16.65;;;;;;;23.63;63.25;95309.34;5032110;28;20033;-80
2023/08/25 01:14:35;;;;;;;21.48;17.40;;;;;;;23.62;62.93;95316.69;5013870;28;20041;-80
2023/08/25 01:17:19;;;;;;;23.90;17.23;;;;;;;23.62;63.42;95321.31;5030513;28;20136;-80
2023/08/25 01:20:14;;;;;;;25.15;17.65;;;;;;;23.34;64.26;95322.22;5030347;28;20030;-80
2023/08/25 01:23:19;;;;;;;21.35;17.23;;;;;;;23.33;64.17;95312.50;5031965;28;20033;-80
2023/08/25 01:25:48;;;;;;;25.55;17.88;;;;;;;23.13;64.52;95286.50;5030495;28;20029;-80
2023/08/25 01:28:13;;;;;;;30.30;18.10;;;;;;;23.18;64.40;95288.97;5030820;28;20099;-81
2023/08/25 01:30:39;;;;;;;22.27;16.77;;;;;;;23.16;64.23;95287.72;5030435;28;20029;-80
2023/08/25 01:33:05;;;;;;;22.10;17.58;;;;;;;22.61;64.52;95225.34;5030114;28;20021;-80
2023/08/25 01:35:30;;;;;;;19.88;17.60;;;;;;;23.38;64.23;95312.22;5030258;28;20041;-80
2023/08/25 01:38:24;;;;;;;19.13;16.25;;;;;;;23.39;64.14;95308.41;5031966;28;20095;-80
2023/08/25 01:41:04;;;;;;;26.63;17.65;;;;;;;23.42;64.10;95306.91;5023500;28;20111;-80
2023/08/25 01:43:34;;;;;;;22.63;17.25;;;;;;;23.46;64.03;95311.25;5031600;28;20071;-79
2023/08/25 01:46:00;;;;;;;32.83;16.15;;;;;;;23.09;63.95;95250.50;5032114;28;20108;-80
2023/08/25 01:48:30;;;;;;;30.30;17.60;;;;;;;23.45;63.71;95300.78;5031838;28;20044;-80
2023/08/25 01:50:56;;;;;;;25.23;16.57;;;;;;;23.50;63.87;95295.13;5030234;28;20033;-80
2023/08/25 01:53:22;;;;;;;20.92;17.17;;;;;;;23.47;64.04;95303.94;5031108;28;20504;-80
2023/08/25 01:55:47;;;;;;;21.60;15.85;;;;;;;23.15;64.14;95270.72;5030254;28;20152;-80
2023/08/25 01:58:14;;;;;;;26.05;17.60;;;;;;;23.37;64.64;95309.88;5030027;28;20017;-80
2023/08/25 02:00:40;;;;;;;21.95;16.05;;;;;;;23.38;64.25;95314.94;5031747;28;20550;-80
2023/08/25 02:03:05;;;;;;;21.60;18.13;;;;;;;23.13;64.62;95274.91;5031508;28;20029;-80
2023/08/25 02:05:31;;;;;;;24.88;17.67;;;;;;;23.27;64.70;95300.38;5030698;28;20491;-80
2023/08/25 02:07:56;;;;;;;20.58;17.08;;;;;;;23.14;65.24;95309.72;5030156;28;20033;-80
2023/08/25 02:10:23;;;;;;;22.65;17.33;;;;;;;22.60;64.95;95212.19;5030393;28;20030;-80
2023/08/25 02:12:49;;;;;;;26.55;16.48;;;;;;;23.22;65.08;95305.25;5031427;28;20464;-80
2023/08/25 02:15:14;;;;;;;21.23;16.42;;;;;;;23.18;65.08;95310.59;5029889;28;20032;-80
2023/08/25 02:17:40;;;;;;;25.55;17.25;;;;;;;23.19;65.08;95311.41;5035582;28;20041;-80
2023/08/25 02:20:07;;;;;;;20.88;16.25;;;;;;;23.07;65.25;95287.91;5035211;28;20029;-80
2023/08/25 02:22:33;;;;;;;26.50;17.35;;;;;;;23.07;65.06;95293.31;5034895;28;20100;-80
2023/08/25 02:24:58;;;;;;;24.52;17.58;;;;;;;23.13;64.94;95294.63;5035161;28;20068;-80
2023/08/25 02:27:24;;;;;;;25.85;16.65;;;;;;;23.16;65.36;95320.97;5066829;28;20036;-78
2023/08/25 02:29:49;;;;;;;20.75;15.93;;;;;;;23.05;65.62;95296.38;5033398;28;20044;-78
2023/08/25 02:32:14;;;;;;;27.33;17.73;;;;;;;23.13;65.58;95318.19;5033228;28;20037;-78
2023/08/25 02:34:40;;;;;;;23.58;16.80;;;;;;;22.75;65.76;95257.38;5034101;28;20046;-78
2023/08/25 02:37:05;;;;;;;24.63;17.02;;;;;;;23.16;65.64;95317.50;5032963;28;20407;-78
2023/08/25 02:39:31;;;;;;;21.58;16.45;;;;;;;23.04;65.65;95302.13;5033005;28;20081;-78
2023/08/25 02:41:56;;;;;;;23.42;16.63;;;;;;;23.02;65.42;95299.78;5033604;28;20033;-78
2023/08/25 02:44:22;;;;;;;21.70;15.27;;;;;;;23.02;65.50;95307.91;5033767;28;20025;-78
2023/08/25 02:46:48;;;;;;;19.25;15.60;;;;;;;22.97;65.87;95304.66;5034668;28;20037;-78
2023/08/25 02:49:13;;;;;;;20.20;14.50;;;;;;;23.05;66.01;95330.75;5032646;28;20029;-78
2023/08/25 02:51:39;;;;;;;23.92;15.48;;;;;;;22.97;65.77;95320.88;5033024;28;20033;-78
2023/08/25 02:54:04;;;;;;;23.67;16.73;;;;;;;22.95;66.18;95331.28;5032761;28;20052;-78
2023/08/25 02:56:29;;;;;;;25.88;16.67;;;;;;;22.82;66.09;95305.44;5033471;28;20087;-79
2023/08/25 02:58:55;;;;;;;21.50;16.05;;;;;;;22.42;65.80;95237.97;5031941;28;20041;-78
2023/08/25 03:01:21;;;;;;;29.98;16.35;;;;;;;22.79;65.84;95300.75;5033790;28;20030;-78
2023/08/25 03:03:47;;;;;;;23.75;16.60;;;;;;;22.79;66.18;95325.06;5032797;28;20458;-78
2023/08/25 03:06:13;;;;;;;22.67;16.55;;;;;;;22.71;65.98;95305.94;5033654;28;20055;-78
2023/08/25 03:08:39;;;;;;;26.23;16.08;;;;;;;22.44;66.06;95257.31;5032407;28;20116;-78
2023/08/25 03:11:04;;;;;;;26.80;16.88;;;;;;;22.74;66.38;95314.50;5033873;28;20519;-78
2023/08/25 03:13:30;;;;;;;29.60;17.08;;;;;;;22.57;66.56;95283.94;5032092;28;20512;-78
2023/08/25 03:15:56;;;;;;;25.05;17.80;;;;;;;22.83;66.63;95336.75;5032077;28;20040;-78
2023/08/25 03:18:22;;;;;;;24.48;18.50;;;;;;;22.81;66.42;95341.75;5034214;28;20029;-78
2023/08/25 03:20:54;;;;;;;26.65;18.00;;;;;;;22.66;66.62;95340.53;5033437;28;20133;-78
2023/08/25 03:23:20;;;;;;;21.05;17.35;;;;;;;22.42;67.25;95311.72;5032239;28;20480;-78
2023/08/25 03:25:46;;;;;;;26.50;17.90;;;;;;;22.63;66.89;95352.84;5033268;28;20418;-78
2023/08/25 03:28:11;;;;;;;31.38;18.15;;;;;;;22.17;67.25;95273.22;5033400;28;20036;-78
2023/08/25 03:30:37;;;;;;;26.75;17.58;;;;;;;22.66;66.82;95344.03;5065276;28;20034;-78
2023/08/25 03:33:04;;;;;;;28.25;18.40;;;;;;;22.51;67.00;95335.88;5031984;28;20025;-78
2023/08/25 03:35:36;;;;;;;36.88;18.42;;;;;;;22.39;67.02;95334.03;5032444;28;20083;-78
2023/08/25 03:38:02;;;;;;;21.15;17.90;;;;;;;22.41;66.82;95345.28;5040927;28;20033;-81
2023/08/25 03:40:28;;;;;;;26.05;18.42;;;;;;;22.32;66.97;95342.72;5043684;28;20044;-81
2023/08/25 03:42:54;;;;;;;23.10;16.65;;;;;;;22.26;67.33;95340.63;5041917;28;20029;-81
2023/08/25 03:45:20;;;;;;;23.40;18.13;;;;;;;22.43;67.16;95355.75;5042485;28;20502;-81
2023/08/25 03:47:45;;;;;;;24.00;16.92;;;;;;;22.41;67.13;95341.78;5042882;28;20037;-81
2023/08/25 03:50:11;;;;;;;27.48;16.88;;;;;;;22.35;67.07;95332.38;5077874;28;20034;-81
2023/08/25 03:52:37;;;;;;;24.60;17.17;;;;;;;22.45;67.17;95346.16;5044010;28;20026;-82
2023/08/25 03:55:03;;;;;;;24.80;18.02;;;;;;;22.42;66.75;95333.34;5045332;28;20040;-81
2023/08/25 03:57:28;;;;;;;23.83;17.63;;;;;;;22.23;67.34;95328.56;5044206;28;20188;-81
2023/08/25 03:59:54;;;;;;;24.80;17.90;;;;;;;22.23;67.20;95333.19;5043900;28;20029;-81
2023/08/25 04:02:19;;;;;;;32.40;18.25;;;;;;;22.36;66.84;95334.69;5045325;28;20037;-81
2023/08/25 04:04:45;;;;;;;27.55;19.10;;;;;;;22.23;66.97;95322.38;5043000;28;20033;-81
2023/08/25 04:07:12;;;;;;;29.83;18.88;;;;;;;22.52;66.76;95362.56;5042275;28;20108;-82
2023/08/25 04:09:38;;;;;;;28.35;18.92;;;;;;;22.46;67.27;95357.75;5042319;28;20429;-82
2023/08/25 04:12:04;;;;;;;37.05;19.40;;;;;;;22.37;67.64;95363.28;5043975;28;20077;-81
2023/08/25 04:14:29;;;;;;;27.00;17.52;;;;;;;22.35;67.40;95351.28;5045983;28;20089;-82
2023/08/25 04:16:56;;;;;;;26.80;17.42;;;;;;;22.30;67.29;95336.09;5045697;28;20040;-82
2023/08/25 04:19:22;;;;;;;22.08;17.35;;;;;;;22.37;67.75;95349.00;5036851;28;20037;-81
2023/08/25 04:21:48;;;;;;;31.02;18.02;;;;;;;22.48;67.46;95369.00;5044893;28;20021;-81
2023/08/25 04:24:16;;;;;;;25.33;18.08;;;;;;;22.33;67.82;95357.81;5045713;28;20022;-81
2023/08/25 04:26:41;;;;;;;30.02;18.92;;;;;;;22.40;67.74;95353.72;5047232;28;20049;-81
2023/08/25 04:29:09;;;;;;;27.70;19.05;;;;;;;22.53;67.41;95372.25;5045356;28;20037;-82
2023/08/25 04:31:35;;;;;;;25.42;18.58;;;;;;;22.48;67.42;95366.31;5045332;28;20101;-81
2023/08/25 04:34:00;;;;;;;29.38;18.13;;;;;;;22.56;66.96;95368.88;5046241;28;20084;-81
2023/08/25 04:36:26;;;;;;;23.95;18.95;;;;;;;22.46;67.02;95360.44;5046378;28;20404;-81
2023/08/25 04:38:51;;;;;;;30.08;18.73;;;;;;;22.45;66.74;95348.84;5046149;28;20116;-82
2023/08/25 04:41:16;;;;;;;33.05;21.40;;;;;;;22.67;66.78;95383.44;5046206;28;20092;-81
2023/08/25 04:43:42;;;;;;;35.42;21.70;;;;;;;22.63;66.90;95387.19;5046758;28;20025;-81
2023/08/25 04:46:07;;;;;;;33.97;22.48;;;;;;;22.42;67.47;95357.66;5046237;28;20093;-81
2023/08/25 04:48:33;;;;;;;34.97;21.30;;;;;;;22.43;67.33;95377.38;5046647;28;20116;-81
2023/08/25 04:50:58;;;;;;;34.97;21.35;;;;;;;22.24;67.44;95348.28;5047161;28;20144;-81
2023/08/25 04:53:24;;;;;;;35.50;20.10;;;;;;;22.35;67.09;95362.09;5045763;28;20033;-80
2023/08/25 04:55:49;;;;;;;37.80;22.33;;;;;;;22.47;66.75;95380.94;5045919;28;20097;-81
2023/08/25 04:58:14;;;;;;;35.78;21.13;;;;;;;22.45;67.09;95369.69;5045499;28;20063;-81
2023/08/25 05:00:40;;;;;;;35.78;20.00;;;;;;;22.26;66.89;95343.31;5044316;28;20064;-82
2023/08/25 05:03:07;;;;;;;34.20;20.42;;;;;;;22.74;66.82;95407.19;5043502;28;20322;-81
2023/08/25 05:05:32;;;;;;;35.83;20.60;;;;;;;22.46;67.09;95371.25;5044361;28;20056;-81
2023/08/25 05:07:58;;;;;;;28.27;19.92;;;;;;;22.71;66.85;95392.44;5045244;28;20033;-82
2023/08/25 05:10:23;;;;;;;32.38;21.17;;;;;;;22.82;66.69;95410.88;5042946;28;20029;-81
2023/08/25 05:12:49;;;;;;;31.90;21.00;;;;;;;22.59;66.48;95378.19;5045522;28;20037;-81
2023/08/25 05:15:14;;;;;;;31.58;20.85;;;;;;;22.63;67.10;95395.28;5044275;28;20445;-81
2023/08/25 05:17:40;;;;;;;35.53;20.13;;;;;;;22.75;66.68;95422.28;5045622;28;20033;-81
2023/08/25 05:20:08;;;;;;;31.52;20.92;;;;;;;22.66;66.57;95397.28;5046036;28;20048;-81
2023/08/25 05:22:34;;;;;;;27.30;20.83;;;;;;;22.68;66.30;95403.94;5045691;28;20080;-81
2023/08/25 05:24:59;;;;;;;50.15;21.55;;;;;;;22.66;66.40;95395.38;5043679;28;20033;-82
2023/08/25 05:27:25;;;;;;;34.03;21.13;;;;;;;22.82;66.06;95400.06;5046694;28;20044;-81
2023/08/25 05:29:50;;;;;;;31.85;20.63;;;;;;;22.94;66.10;95418.97;5048262;28;20033;-81
2023/08/25 05:32:15;;;;;;;29.60;21.40;;;;;;;22.91;65.94;95417.72;5043956;28;20044;-81
2023/08/25 05:34:41;;;;;;;40.63;22.52;;;;;;;22.95;65.80;95417.81;5044462;28;20053;-82
2023/08/25 05:37:06;;;;;;;38.35;22.35;;;;;;;22.91;65.58;95393.38;5044965;28;20089;-81
2023/08/25 05:39:32;;;;;;;34.38;21.23;;;;;;;23.09;65.28;95400.06;5044854;28;20037;-81
2023/08/25 05:41:57;;;;;;;29.33;22.20;;;;;;;23.26;65.24;95420.59;5044335;28;20030;-82
2023/08/25 05:44:23;;;;;;;31.35;21.35;;;;;;;23.13;65.03;95389.31;5044256;28;20063;-81
2023/08/25 05:46:48;;;;;;;34.75;22.38;;;;;;;23.38;64.84;95417.00;5042420;28;20036;-81
2023/08/25 05:49:14;;;;;;;35.70;22.33;;;;;;;23.17;65.21;95409.13;5044889;28;20029;-80
2023/08/25 05:51:39;;;;;;;29.08;21.75;;;;;;;23.11;65.17;95379.97;5049064;28;20033;-81
2023/08/25 05:54:05;;;;;;;33.55;21.88;;;;;;;23.06;65.20;95370.97;5048790;28;20114;-81
2023/08/25 05:56:30;;;;;;;32.25;21.73;;;;;;;23.21;64.79;95377.53;5045575;28;20037;-78
2023/08/25 05:58:59;;;;;;;37.13;22.10;;;;;;;23.44;64.23;95391.22;5033586;28;20036;-78
2023/08/25 06:01:24;;;;;;;37.90;22.00;;;;;;;23.47;64.88;95398.66;5033666;28;20037;-78
2023/08/25 06:03:50;;;;;;;34.53;22.85;;;;;;;23.45;64.79;95399.00;5035210;28;20084;-79
2023/08/25 06:06:16;;;;;;;33.40;21.63;;;;;;;23.49;64.46;95393.72;5033727;28;20033;-79
2023/08/25 06:08:42;;;;;;;34.55;22.85;;;;;;;23.42;64.75;95377.28;5033491;28;20408;-78
2023/08/25 06:11:07;;;;;;;31.10;21.00;;;;;;;23.42;64.84;95377.28;5033205;28;20037;-78
2023/08/25 06:13:33;;;;;;;27.88;20.95;;;;;;;23.45;65.24;95399.00;5033609;28;20512;-79
2023/08/25 06:15:59;;;;;;;29.48;21.42;;;;;;;23.46;64.34;95378.94;5016591;28;20470;-79
2023/08/25 06:18:24;;;;;;;32.63;21.58;;;;;;;23.50;65.06;95391.81;5032794;28;20047;-78
2023/08/25 06:20:54;;;;;;;32.92;21.55;;;;;;;23.51;64.75;95377.09;5033165;28;20476;-78
2023/08/25 06:23:19;;;;;;;30.48;23.63;;;;;;;23.53;64.65;95366.72;5032506;28;20086;-78
2023/08/25 06:25:45;;;;;;;38.50;22.15;;;;;;;23.80;64.28;95384.78;5033081;28;20472;-78
2023/08/25 06:28:10;;;;;;;41.22;23.00;;;;;;;23.43;63.95;95333.59;5034353;28;20086;-78
2023/08/25 06:30:36;;;;;;;31.13;22.42;;;;;;;23.82;63.72;95385.97;5034977;28;20045;-79
2023/08/25 06:33:02;;;;;;;44.85;23.67;;;;;;;23.46;63.40;95321.31;5034375;28;20056;-78
2023/08/25 06:35:27;;;;;;;30.75;22.77;;;;;;;23.81;63.25;95361.97;5034681;28;20052;-79
2023/08/25 06:37:53;;;;;;;36.17;22.27;;;;;;;24.02;63.17;95386.81;5034649;28;20037;-79
2023/08/25 06:40:18;;;;;;;38.53;22.98;;;;;;;23.95;63.55;95388.59;5033868;28;20033;-79
2023/08/25 06:42:44;;;;;;;39.92;22.42;;;;;;;23.99;63.12;95373.97;5066428;28;20388;-79
2023/08/25 06:45:09;;;;;;;38.53;22.95;;;;;;;24.05;63.25;95386.09;5033561;28;20051;-79
2023/08/25 06:47:35;;;;;;;40.33;22.08;;;;;;;24.01;63.54;95393.38;5032536;28;20083;-79
2023/08/25 06:50:02;;;;;;;28.40;21.13;;;;;;;23.93;63.79;95369.97;5034196;28;20081;-79
2023/08/25 06:52:27;;;;;;;37.03;22.83;;;;;;;24.10;63.17;95379.63;5032623;28;20025;-79
2023/08/25 06:54:53;;;;;;;36.50;22.33;;;;;;;23.75;63.65;95347.13;5032338;28;20029;-80
2023/08/25 06:57:18;;;;;;;29.60;21.67;;;;;;;24.00;63.30;95372.06;5034620;28;20033;-78
2023/08/25 06:59:44;;;;;;;37.85;24.52;;;;;;;24.08;63.51;95376.50;5036693;28;20033;-78
2023/08/25 07:02:09;;;;;;;41.03;22.55;;;;;;;24.01;63.34;95369.00;5035871;28;20041;-78
2023/08/25 07:04:35;;;;;;;30.58;20.63;;;;;;;24.22;62.98;95383.03;5034177;28;20117;-78
2023/08/25 07:07:01;;;;;;;26.70;20.60;;;;;;;24.10;62.81;95358.75;5033827;28;20132;-78
2023/08/25 07:09:28;;;;;;;33.50;21.98;;;;;;;24.04;62.76;95348.53;5035141;28;20029;-79
2023/08/25 07:11:53;;;;;;;38.92;20.60;;;;;;;24.29;62.74;95381.59;5035013;28;20025;-79
2023/08/25 07:14:19;;;;;;;31.73;20.85;;;;;;;24.17;62.92;95353.47;5032664;28;20041;-79
2023/08/25 07:16:44;;;;;;;33.88;21.92;;;;;;;24.34;62.89;95384.81;5032789;28;20048;-79
2023/08/25 07:19:10;;;;;;;33.58;21.67;;;;;;;24.34;62.87;95384.03;5033916;28;20029;-78
2023/08/25 07:21:36;;;;;;;29.05;20.88;;;;;;;24.53;62.61;95400.31;5032672;28;20025;-79
2023/08/25 07:24:02;;;;;;;32.25;20.30;;;;;;;24.54;62.48;95402.66;5065380;28;20094;-78
2023/08/25 07:26:28;;;;;;;30.35;20.08;;;;;;;24.46;62.37;95390.09;5031886;28;20036;-79
2023/08/25 07:28:53;;;;;;;34.45;18.92;;;;;;;24.60;62.26;95397.72;5031457;28;20037;-78
2023/08/25 07:31:19;;;;;;;32.55;18.48;;;;;;;24.37;62.21;95364.34;5034003;28;20348;-78
2023/08/25 07:33:44;;;;;;;26.38;17.27;;;;;;;24.60;62.08;95397.72;5031393;28;20072;-78
2023/08/25 07:36:09;;;;;;;25.13;16.95;;;;;;;24.53;61.46;95376.69;5033485;28;20140;-79
2023/08/25 07:38:35;;;;;;;29.95;17.33;;;;;;;24.65;61.50;95402.06;5032591;28;20496;-78
2023/08/25 07:41:00;;;;;;;28.85;16.45;;;;;;;24.47;60.73;95356.44;5032353;28;20075;-78
2023/08/25 07:43:26;;;;;;;23.70;17.33;;;;;;;24.72;60.92;95386.72;5033762;28;20120;-79
2023/08/25 07:45:53;;;;;;;22.80;16.05;;;;;;;24.81;60.21;95391.94;5032802;28;20063;-79
2023/08/25 07:48:19;;;;;;;20.23;14.35;;;;;;;24.29;59.48;95321.97;5031598;28;20420;-78
2023/08/25 07:50:44;;;;;;;26.13;15.98;;;;;;;24.80;59.31;95388.44;5033111;28;20049;-78
2023/08/25 07:53:13;;;;;;;22.88;15.43;;;;;;;24.87;59.46;95374.25;5031837;28;20042;-79
2023/08/25 07:55:39;;;;;;;27.02;15.10;;;;;;;25.04;58.91;95394.72;5064818;28;20502;-78
2023/08/25 07:58:09;;;;;;;23.25;12.23;;;;;;;25.20;57.35;95406.25;5032119;28;20076;-78
2023/08/25 08:00:36;;;;;;;22.57;12.00;;;;;;;25.18;57.00;95395.75;5033743;28;20067;-78
2023/08/25 08:03:03;;;;;;;20.42;11.75;;;;;;;25.23;57.06;95395.47;5032808;28;20061;-79
2023/08/25 08:05:28;;;;;;;20.23;13.38;;;;;;;25.33;56.75;95404.91;5032864;28;20064;-79
2023/08/25 08:07:55;;;;;;;21.10;13.23;;;;;;;24.89;57.08;95334.75;5031793;28;20040;-79
2023/08/25 08:10:21;;;;;;;17.35;12.18;;;;;;;25.19;56.01;95355.81;5033332;28;20489;-78
2023/08/25 08:12:46;;;;;;;17.85;13.00;;;;;;;25.36;56.84;95372.41;5031604;28;20132;-79
2023/08/25 08:15:13;;;;;;;20.88;11.77;;;;;;;25.36;54.65;95366.97;5031222;28;20132;-78
2023/08/25 08:17:39;;;;;;;14.13;11.18;;;;;;;25.63;55.05;95389.53;5042485;28;20048;-81
2023/08/25 08:20:07;;;;;;;18.20;11.45;;;;;;;25.73;54.67;95385.44;5051461;28;20132;-82
2023/08/25 08:22:32;;;;;;;17.45;10.93;;;;;;;25.60;53.94;95340.63;5044485;28;20044;-82
2023/08/25 08:24:58;;;;;;;16.15;8.73;;;;;;;25.78;51.79;95357.19;5044798;28;20034;-82
2023/08/25 08:27:23;;;;;;;12.82;9.40;;;;;;;25.91;51.15;95372.13;5045409;28;20030;-82
2023/08/25 08:29:49;;;;;;;19.10;10.50;;;;;;;26.02;50.98;95362.94;5047235;28;20056;-81
2023/08/25 08:32:15;;;;;;;11.68;10.02;;;;;;;26.15;51.13;95371.69;5048797;28;20096;-82
2023/08/25 08:34:40;;;;;;;15.13;9.10;;;;;;;25.88;50.68;95311.13;5047597;28;20050;-82
2023/08/25 08:37:06;;;;;;;24.80;10.35;;;;;;;25.95;50.03;95307.72;5046652;28;20072;-82
2023/08/25 08:39:37;;;;;;;15.88;8.25;;;;;;;26.40;49.09;95361.13;5045321;28;20045;-81
2023/08/25 08:42:03;;;;;;;15.77;9.23;;;;;;;26.20;48.07;95325.16;5043805;28;20038;-82
2023/08/25 08:44:30;;;;;;;11.45;8.15;;;;;;;26.55;48.23;95365.59;5046749;28;20074;-82
2023/08/25 08:46:57;;;;;;;17.25;8.77;;;;;;;26.54;48.50;95358.63;5046480;28;20068;-81
2023/08/25 08:49:26;;;;;;;15.02;8.57;;;;;;;26.52;47.90;95344.59;5048138;28;20037;-82
2023/08/25 08:51:53;;;;;;;13.18;8.40;;;;;;;26.66;47.83;95360.28;5048306;28;20037;-81
2023/08/25 08:54:19;;;;;;;17.25;8.15;;;;;;;26.39;47.27;95299.78;5045209;28;20083;-82
2023/08/25 08:56:46;;;;;;;17.58;9.38;;;;;;;26.37;46.77;95291.22;5044799;28;20045;-81
2023/08/25 08:59:11;;;;;;;11.73;7.47;;;;;;;26.79;46.48;95339.81;5045882;28;20045;-82
2023/08/25 09:01:41;;;;;;;11.23;7.63;;;;;;;26.61;46.05;95307.03;5044440;28;20057;-82
2023/08/25 09:04:08;;;;;;;14.07;7.55;;;;;;;26.56;46.02;95301.09;5043821;28;20036;-82
2023/08/25 09:06:36;;;;;;;13.05;8.13;;;;;;;26.76;45.50;95321.53;5043764;28;20099;-82
2023/08/25 09:09:05;;;;;;;12.88;8.13;;;;;;;26.99;45.85;95352.13;5046902;28;20100;-81
2023/08/25 09:11:31;;;;;;;10.98;7.97;;;;;;;27.00;45.53;95331.94;5039917;28;20029;-81
2023/08/25 09:13:58;;;;;;;8.60;6.93;;;;;;;26.82;44.78;95293.63;5045658;28;20077;-82
2023/08/25 09:16:25;;;;;;;11.20;7.35;;;;;;;27.13;44.94;95327.75;5045566;28;20037;-82
2023/08/25 09:18:52;;;;;;;17.52;7.75;;;;;;;27.04;45.40;95312.91;5045493;28;20064;-82
2023/08/25 09:21:20;;;;;;;12.30;8.20;;;;;;;27.14;45.46;95334.78;5046928;28;20041;-82
2023/08/25 09:23:58;;;;;;;11.88;7.45;;;;;;;27.28;45.57;95334.13;5044180;28;20034;-82
2023/08/25 09:26:25;;;;;;;11.15;8.32;;;;;;;27.40;45.51;95330.31;5027286;28;20496;-79
2023/08/25 09:28:57;;;;;;;11.25;7.60;;;;;;;27.36;44.62;95297.63;5031443;28;20440;-79
2023/08/25 09:31:28;;;;;;;14.00;7.30;;;;;;;27.52;44.03;95319.13;5030920;28;20033;-79
2023/08/25 09:34:05;;;;;;;17.40;7.55;;;;;;;27.59;43.92;95316.47;5029468;28;20060;-79
2023/08/25 09:36:33;;;;;;;12.23;7.60;;;;;;;27.49;43.88;95296.16;5029683;28;20049;-79
2023/08/25 09:39:00;;;;;;;11.82;7.45;;;;;;;27.32;42.84;95239.59;5029730;28;20075;-79
2023/08/25 09:41:28;;;;;;;8.63;6.82;;;;;;;27.79;42.03;95304.16;5029806;28;20062;-78
2023/08/25 09:44:01;;;;;;;14.63;7.18;;;;;;;27.84;42.07;95305.75;5029952;28;20040;-78
2023/08/25 09:46:28;;;;;;;14.63;6.85;;;;;;;27.64;41.70;95283.44;5030140;28;20096;-78
2023/08/25 09:49:04;;;;;;;9.63;6.57;;;;;;;27.62;41.62;95274.84;5030694;28;20566;-79
2023/08/25 09:51:42;;;;;;;10.18;6.38;;;;;;;27.92;40.51;95301.91;5030100;28;20041;-79
2023/08/25 09:54:13;;;;;;;7.63;5.90;;;;;;;27.89;40.93;95281.63;5029875;28;20213;-79
2023/08/25 09:56:40;;;;;;;9.27;6.97;;;;;;;27.95;40.50;95236.50;5029910;28;20029;-79
2023/08/25 09:59:07;;;;;;;10.10;6.15;;;;;;;28.78;38.55;95260.94;5030122;28;20145;-78
2023/08/25 10:01:34;;;;;;;11.10;6.93;;;;;;;29.70;37.18;95290.22;5024590;28;20034;-79
2023/08/25 10:04:02;;;;;;;13.35;7.22;;;;;;;30.42;36.12;95252.50;5006940;28;20038;-79
2023/08/25 10:06:30;;;;;;;9.30;6.10;;;;;;;31.40;35.15;95255.75;5015096;28;20033;-79
2023/08/25 10:08:56;;;;;;;10.40;6.38;;;;;;;32.14;33.19;95265.19;5027326;28;20041;-79
2023/08/25 10:11:25;;;;;;;9.25;6.35;;;;;;;32.91;31.71;95271.66;5029166;28;20350;-79
2023/08/25 10:13:55;;;;;;;8.60;6.55;;;;;;;33.42;31.22;95244.97;5030897;28;20496;-79
2023/08/25 10:16:26;;;;;;;11.05;6.32;;;;;;;33.87;30.20;95247.34;5030709;28;20044;-79
2023/08/25 10:18:54;;;;;;;9.32;6.45;;;;;;;34.58;29.30;95243.16;5030049;28;20034;-79
2023/08/25 10:21:20;;;;;;;11.80;6.15;;;;;;;35.03;28.25;95238.59;5030322;28;20115;-79
2023/08/25 10:23:50;;;;;;;9.18;5.72;;;;;;;35.64;27.12;95243.38;5027355;28;20053;-78
2023/08/25 10:26:17;;;;;;;12.80;5.22;;;;;;;35.71;26.59;95245.22;5029935;28;20537;-79
2023/08/25 10:28:44;;;;;;;10.45;5.43;;;;;;;35.87;26.34;95215.59;5028294;28;20455;-79
2023/08/25 10:31:10;;;;;;;12.13;5.50;;;;;;;36.44;25.61;95249.13;5029403;28;20029;-78
2023/08/25 10:33:45;;;;;;;10.82;5.22;;;;;;;36.24;25.53;95254.81;5031126;28;20083;-79
2023/08/25 10:36:18;;;;;;;7.05;5.80;;;;;;;36.38;24.95;95229.59;5029876;28;20417;-78
2023/08/25 10:38:52;;;;;;;12.27;5.88;;;;;;;36.92;24.85;95245.34;5033874;28;20104;-79
2023/08/25 10:41:18;;;;;;;15.60;5.90;;;;;;;36.98;25.45;95243.56;5033050;28;20044;-79
2023/08/25 10:43:50;;;;;;;7.35;5.00;;;;;;;37.24;24.97;95242.34;5032056;28;20510;-79
2023/08/25 10:46:18;;;;;;;13.02;5.03;;;;;;;37.25;24.25;95207.94;5032515;28;20519;-79
2023/08/25 10:48:46;;;;;;;10.88;5.00;;;;;;;37.45;23.57;95211.22;5031591;28;20029;-79
2023/08/25 10:51:18;;;;;;;8.15;4.75;;;;;;;37.32;23.55;95251.19;5033816;28;20218;-79
2023/08/25 10:53:50;;;;;;;9.38;4.68;;;;;;;37.44;23.48;95231.81;5032365;28;20083;-79
2023/08/25 10:56:18;;;;;;;8.45;4.80;;;;;;;37.40;23.53;95247.72;5032074;28;20037;-79
2023/08/25 10:58:56;;;;;;;9.52;4.63;;;;;;;37.21;24.32;95239.72;5031606;28;20033;-79
2023/08/25 11:01:27;;;;;;;6.85;4.95;;;;;;;37.55;24.22;95233.41;5031515;28;20037;-79
2023/08/25 11:04:24;;;;;;;10.73;5.15;;;;;;;37.65;23.90;95235.09;5032583;28;20025;-79
2023/08/25 11:06:51;;;;;;;9.10;4.88;;;;;;;37.62;23.76;95225.69;5020259;28;20188;-79
2023/08/25 11:09:35;;;;;;;10.52;5.35;;;;;;;37.76;23.12;95225.22;5031530;28;20056;-80
2023/08/25 11:12:06;;;;;;;11.95;4.70;;;;;;;37.88;22.93;95223.59;5030758;28;20037;-79
2023/08/25 11:14:38;;;;;;;8.60;5.03;;;;;;;37.79;22.82;95184.78;5032252;28;20052;-79
2023/08/25 11:17:09;;;;;;;10.57;4.85;;;;;;;37.80;22.88;95216.75;5030886;28;20547;-80
2023/08/25 11:19:37;;;;;;;8.25;4.78;;;;;;;37.75;22.68;95203.50;5031181;28;20472;-79